sensor_id;sensor_type;location;lat;lon;timestamp;P1;durP1;ratioP1;P2;durP2;ratioP2
27013;SDS011;14556;52.222;4.510;2023-12-07T00:02:15;3.10;;;1.80;;
27013;SDS011;14556;52.222;4.510;2023-12-07T00:04:42;3.63;;;1.43;;
27013;SDS011;14556;52.222;4.510;2023-12-07T00:07:08;6.73;;;2.17;;
27013;SDS011;14556;52.222;4.510;2023-12-07T00:09:35;4.10;;;2.07;;
27013;SDS011;14556;52.222;4.510;2023-12-07T00:12:01;4.50;;;2.00;;
27013;SDS011;14556;52.222;4.510;2023-12-07T00:14:30;2.07;;;1.80;;
27013;SDS011;14556;52.222;4.510;2023-12-07T00:16:57;2.87;;;1.67;;
27013;SDS011;14556;52.222;4.510;2023-12-07T00:19:23;3.70;;;2.03;;
27013;SDS011;14556;52.222;4.510;2023-12-07T00:21:49;3.13;;;2.40;;
27013;SDS011;14556;52.222;4.510;2023-12-07T00:24:16;4.13;;;2.50;;
27013;SDS011;14556;52.222;4.510;2023-12-07T00:26:42;2.57;;;2.07;;
27013;SDS011;14556;52.222;4.510;2023-12-07T00:29:09;3.90;;;2.30;;
27013;SDS011;14556;52.222;4.510;2023-12-07T00:31:35;3.03;;;2.07;;
27013;SDS011;14556;52.222;4.510;2023-12-07T00:34:03;3.43;;;1.90;;
27013;SDS011;14556;52.222;4.510;2023-12-07T00:36:33;3.23;;;2.20;;
27013;SDS011;14556;52.222;4.510;2023-12-07T00:39:00;5.30;;;2.33;;
27013;SDS011;14556;52.222;4.510;2023-12-07T00:41:26;3.63;;;2.23;;
27013;SDS011;14556;52.222;4.510;2023-12-07T00:43:53;5.03;;;2.60;;
27013;SDS011;14556;52.222;4.510;2023-12-07T00:46:19;4.40;;;2.40;;
27013;SDS011;14556;52.222;4.510;2023-12-07T00:48:46;4.43;;;2.10;;
27013;SDS011;14556;52.222;4.510;2023-12-07T00:51:13;3.13;;;2.07;;
27013;SDS011;14556;52.222;4.510;2023-12-07T00:53:40;5.10;;;2.07;;
27013;SDS011;14556;52.222;4.510;2023-12-07T00:56:07;3.80;;;2.37;;
27013;SDS011;14556;52.222;4.510;2023-12-07T00:58:34;3.17;;;2.13;;
27013;SDS011;14556;52.222;4.510;2023-12-07T01:01:00;3.47;;;2.10;;
27013;SDS011;14556;52.222;4.510;2023-12-07T01:03:26;2.20;;;2.00;;
27013;SDS011;14556;52.222;4.510;2023-12-07T01:05:53;3.60;;;2.67;;
27013;SDS011;14556;52.222;4.510;2023-12-07T01:08:19;3.20;;;2.10;;
27013;SDS011;14556;52.222;4.510;2023-12-07T01:10:46;3.67;;;2.40;;
27013;SDS011;14556;52.222;4.510;2023-12-07T01:13:12;2.77;;;2.40;;
27013;SDS011;14556;52.222;4.510;2023-12-07T01:15:39;3.27;;;2.43;;
27013;SDS011;14556;52.222;4.510;2023-12-07T01:18:05;4.87;;;2.33;;
27013;SDS011;14556;52.222;4.510;2023-12-07T01:20:32;3.00;;;2.20;;
27013;SDS011;14556;52.222;4.510;2023-12-07T01:22:58;5.67;;;2.37;;
27013;SDS011;14556;52.222;4.510;2023-12-07T01:25:24;4.20;;;2.50;;
27013;SDS011;14556;52.222;4.510;2023-12-07T01:27:51;5.43;;;2.70;;
27013;SDS011;14556;52.222;4.510;2023-12-07T01:30:18;4.97;;;3.63;;
27013;SDS011;14556;52.222;4.510;2023-12-07T01:32:44;4.67;;;2.70;;
27013;SDS011;14556;52.222;4.510;2023-12-07T01:35:11;5.13;;;3.03;;
27013;SDS011;14556;52.222;4.510;2023-12-07T01:37:38;4.77;;;2.67;;
27013;SDS011;14556;52.222;4.510;2023-12-07T01:40:05;3.87;;;2.47;;
27013;SDS011;14556;52.222;4.510;2023-12-07T01:42:36;3.90;;;2.47;;
27013;SDS011;14556;52.222;4.510;2023-12-07T01:45:04;9.13;;;3.03;;
27013;SDS011;14556;52.222;4.510;2023-12-07T01:47:31;4.40;;;2.90;;
27013;SDS011;14556;52.222;4.510;2023-12-07T01:49:58;5.43;;;3.10;;
27013;SDS011;14556;52.222;4.510;2023-12-07T01:52:25;4.67;;;3.10;;
27013;SDS011;14556;52.222;4.510;2023-12-07T01:54:53;6.53;;;3.83;;
27013;SDS011;14556;52.222;4.510;2023-12-07T01:57:20;6.33;;;3.57;;
27013;SDS011;14556;52.222;4.510;2023-12-07T01:59:46;5.37;;;3.40;;
27013;SDS011;14556;52.222;4.510;2023-12-07T02:02:14;6.73;;;4.00;;
27013;SDS011;14556;52.222;4.510;2023-12-07T02:04:40;4.90;;;3.37;;
27013;SDS011;14556;52.222;4.510;2023-12-07T02:07:07;4.90;;;2.93;;
27013;SDS011;14556;52.222;4.510;2023-12-07T02:09:34;8.57;;;3.07;;
27013;SDS011;14556;52.222;4.510;2023-12-07T02:12:00;4.37;;;2.90;;
27013;SDS011;14556;52.222;4.510;2023-12-07T02:14:26;4.27;;;2.93;;
27013;SDS011;14556;52.222;4.510;2023-12-07T02:21:59;4.87;;;3.53;;
27013;SDS011;14556;52.222;4.510;2023-12-07T02:24:28;9.03;;;4.50;;
27013;SDS011;14556;52.222;4.510;2023-12-07T02:26:59;6.60;;;4.17;;
27013;SDS011;14556;52.222;4.510;2023-12-07T02:29:26;10.73;;;4.93;;
27013;SDS011;14556;52.222;4.510;2023-12-07T02:31:52;10.27;;;5.00;;
27013;SDS011;14556;52.222;4.510;2023-12-07T02:34:19;6.13;;;4.27;;
27013;SDS011;14556;52.222;4.510;2023-12-07T02:36:46;6.60;;;4.10;;
27013;SDS011;14556;52.222;4.510;2023-12-07T02:39:14;7.20;;;4.30;;
27013;SDS011;14556;52.222;4.510;2023-12-07T02:41:40;8.17;;;5.17;;
27013;SDS011;14556;52.222;4.510;2023-12-07T02:44:07;6.47;;;4.67;;
27013;SDS011;14556;52.222;4.510;2023-12-07T02:46:33;10.37;;;5.20;;
27013;SDS011;14556;52.222;4.510;2023-12-07T02:49:00;10.33;;;4.90;;
27013;SDS011;14556;52.222;4.510;2023-12-07T02:51:27;6.43;;;4.47;;
27013;SDS011;14556;52.222;4.510;2023-12-07T02:53:53;8.83;;;4.83;;
27013;SDS011;14556;52.222;4.510;2023-12-07T02:56:20;7.93;;;5.03;;
27013;SDS011;14556;52.222;4.510;2023-12-07T02:58:48;8.70;;;4.90;;
27013;SDS011;14556;52.222;4.510;2023-12-07T03:01:14;10.37;;;4.70;;
27013;SDS011;14556;52.222;4.510;2023-12-07T03:03:41;7.27;;;4.83;;
27013;SDS011;14556;52.222;4.510;2023-12-07T03:06:08;6.77;;;4.50;;
27013;SDS011;14556;52.222;4.510;2023-12-07T03:08:35;7.47;;;4.63;;
27013;SDS011;14556;52.222;4.510;2023-12-07T03:11:01;6.70;;;4.47;;
27013;SDS011;14556;52.222;4.510;2023-12-07T03:13:28;5.60;;;3.87;;
27013;SDS011;14556;52.222;4.510;2023-12-07T03:15:54;7.80;;;4.70;;
27013;SDS011;14556;52.222;4.510;2023-12-07T03:18:21;10.17;;;5.67;;
27013;SDS011;14556;52.222;4.510;2023-12-07T03:20:48;8.07;;;4.23;;
27013;SDS011;14556;52.222;4.510;2023-12-07T03:23:16;8.37;;;4.40;;
27013;SDS011;14556;52.222;4.510;2023-12-07T03:25:43;5.73;;;4.47;;
27013;SDS011;14556;52.222;4.510;2023-12-07T03:28:09;7.17;;;4.63;;
27013;SDS011;14556;52.222;4.510;2023-12-07T03:30:36;8.10;;;4.43;;
27013;SDS011;14556;52.222;4.510;2023-12-07T03:33:02;7.63;;;3.93;;
27013;SDS011;14556;52.222;4.510;2023-12-07T03:35:29;7.20;;;4.20;;
27013;SDS011;14556;52.222;4.510;2023-12-07T03:37:55;5.50;;;4.57;;
27013;SDS011;14556;52.222;4.510;2023-12-07T03:40:22;6.43;;;4.43;;
27013;SDS011;14556;52.222;4.510;2023-12-07T03:42:49;9.33;;;4.93;;
27013;SDS011;14556;52.222;4.510;2023-12-07T03:45:22;8.00;;;4.30;;
27013;SDS011;14556;52.222;4.510;2023-12-07T03:47:48;8.40;;;4.90;;
27013;SDS011;14556;52.222;4.510;2023-12-07T03:50:15;5.40;;;4.83;;
27013;SDS011;14556;52.222;4.510;2023-12-07T03:52:41;7.60;;;4.93;;
27013;SDS011;14556;52.222;4.510;2023-12-07T03:55:08;8.77;;;4.03;;
27013;SDS011;14556;52.222;4.510;2023-12-07T03:57:37;7.30;;;4.70;;
27013;SDS011;14556;52.222;4.510;2023-12-07T04:00:06;8.97;;;5.00;;
27013;SDS011;14556;52.222;4.510;2023-12-07T04:02:34;7.67;;;5.07;;
27013;SDS011;14556;52.222;4.510;2023-12-07T04:05:00;9.17;;;4.87;;
27013;SDS011;14556;52.222;4.510;2023-12-07T04:07:28;9.03;;;4.97;;
27013;SDS011;14556;52.222;4.510;2023-12-07T04:09:56;12.90;;;5.13;;
27013;SDS011;14556;52.222;4.510;2023-12-07T04:12:23;10.13;;;4.97;;
27013;SDS011;14556;52.222;4.510;2023-12-07T04:14:50;8.30;;;4.07;;
27013;SDS011;14556;52.222;4.510;2023-12-07T04:17:17;7.93;;;4.70;;
27013;SDS011;14556;52.222;4.510;2023-12-07T04:19:44;7.70;;;4.27;;
27013;SDS011;14556;52.222;4.510;2023-12-07T04:22:10;7.47;;;3.93;;
27013;SDS011;14556;52.222;4.510;2023-12-07T04:24:38;10.07;;;4.70;;
27013;SDS011;14556;52.222;4.510;2023-12-07T04:27:04;6.13;;;4.10;;
27013;SDS011;14556;52.222;4.510;2023-12-07T04:29:31;7.80;;;4.47;;
27013;SDS011;14556;52.222;4.510;2023-12-07T04:31:57;6.47;;;3.97;;
27013;SDS011;14556;52.222;4.510;2023-12-07T04:34:24;7.57;;;4.50;;
27013;SDS011;14556;52.222;4.510;2023-12-07T04:36:51;9.37;;;5.10;;
27013;SDS011;14556;52.222;4.510;2023-12-07T04:39:17;7.97;;;4.37;;
27013;SDS011;14556;52.222;4.510;2023-12-07T04:41:43;5.67;;;4.27;;
27013;SDS011;14556;52.222;4.510;2023-12-07T04:44:10;5.37;;;3.73;;
27013;SDS011;14556;52.222;4.510;2023-12-07T04:46:36;6.97;;;4.23;;
27013;SDS011;14556;52.222;4.510;2023-12-07T04:49:03;7.97;;;4.30;;
27013;SDS011;14556;52.222;4.510;2023-12-07T04:51:30;9.03;;;5.60;;
27013;SDS011;14556;52.222;4.510;2023-12-07T04:53:56;8.97;;;4.47;;
27013;SDS011;14556;52.222;4.510;2023-12-07T04:56:39;8.20;;;4.87;;
27013;SDS011;14556;52.222;4.510;2023-12-07T04:59:06;7.60;;;4.63;;
27013;SDS011;14556;52.222;4.510;2023-12-07T05:01:32;8.13;;;4.93;;
27013;SDS011;14556;52.222;4.510;2023-12-07T05:04:00;7.90;;;4.20;;
27013;SDS011;14556;52.222;4.510;2023-12-07T05:06:26;7.17;;;4.47;;
27013;SDS011;14556;52.222;4.510;2023-12-07T05:08:53;8.40;;;4.80;;
27013;SDS011;14556;52.222;4.510;2023-12-07T05:11:19;6.87;;;4.23;;
27013;SDS011;14556;52.222;4.510;2023-12-07T05:13:45;10.17;;;5.07;;
27013;SDS011;14556;52.222;4.510;2023-12-07T05:16:12;7.93;;;5.00;;
27013;SDS011;14556;52.222;4.510;2023-12-07T05:18:38;8.53;;;4.50;;
27013;SDS011;14556;52.222;4.510;2023-12-07T05:21:06;8.07;;;4.70;;
27013;SDS011;14556;52.222;4.510;2023-12-07T05:23:33;7.60;;;4.90;;
27013;SDS011;14556;52.222;4.510;2023-12-07T05:26:04;8.13;;;4.77;;
27013;SDS011;14556;52.222;4.510;2023-12-07T05:28:30;12.57;;;5.13;;
27013;SDS011;14556;52.222;4.510;2023-12-07T05:30:58;8.50;;;5.10;;
27013;SDS011;14556;52.222;4.510;2023-12-07T05:33:25;9.67;;;5.17;;
27013;SDS011;14556;52.222;4.510;2023-12-07T05:35:51;9.20;;;5.53;;
27013;SDS011;14556;52.222;4.510;2023-12-07T05:38:18;8.77;;;5.03;;
27013;SDS011;14556;52.222;4.510;2023-12-07T05:40:44;6.67;;;4.47;;
27013;SDS011;14556;52.222;4.510;2023-12-07T05:43:11;8.63;;;4.87;;
27013;SDS011;14556;52.222;4.510;2023-12-07T05:45:37;8.70;;;5.07;;
27013;SDS011;14556;52.222;4.510;2023-12-07T05:48:04;8.03;;;5.50;;
27013;SDS011;14556;52.222;4.510;2023-12-07T05:50:30;14.87;;;5.70;;
27013;SDS011;14556;52.222;4.510;2023-12-07T05:52:57;10.47;;;5.83;;
27013;SDS011;14556;52.222;4.510;2023-12-07T05:55:23;14.13;;;6.60;;
27013;SDS011;14556;52.222;4.510;2023-12-07T05:57:50;10.27;;;6.60;;
27013;SDS011;14556;52.222;4.510;2023-12-07T06:00:18;13.63;;;6.87;;
27013;SDS011;14556;52.222;4.510;2023-12-07T06:02:45;11.43;;;6.23;;
27013;SDS011;14556;52.222;4.510;2023-12-07T06:05:12;20.63;;;7.73;;
27013;SDS011;14556;52.222;4.510;2023-12-07T06:07:39;17.60;;;7.90;;
27013;SDS011;14556;52.222;4.510;2023-12-07T06:10:05;15.80;;;7.83;;
27013;SDS011;14556;52.222;4.510;2023-12-07T06:12:32;12.17;;;7.07;;
27013;SDS011;14556;52.222;4.510;2023-12-07T06:14:59;12.07;;;7.07;;
27013;SDS011;14556;52.222;4.510;2023-12-07T06:17:25;15.50;;;8.37;;
27013;SDS011;14556;52.222;4.510;2023-12-07T06:19:52;15.37;;;8.77;;
27013;SDS011;14556;52.222;4.510;2023-12-07T06:22:19;14.97;;;8.63;;
27013;SDS011;14556;52.222;4.510;2023-12-07T06:24:45;14.57;;;8.63;;
27013;SDS011;14556;52.222;4.510;2023-12-07T06:27:11;15.70;;;8.07;;
27013;SDS011;14556;52.222;4.510;2023-12-07T06:29:38;12.43;;;7.33;;
27013;SDS011;14556;52.222;4.510;2023-12-07T06:32:05;16.07;;;7.87;;
27013;SDS011;14556;52.222;4.510;2023-12-07T06:34:32;12.40;;;7.70;;
27013;SDS011;14556;52.222;4.510;2023-12-07T06:36:59;15.20;;;8.27;;
27013;SDS011;14556;52.222;4.510;2023-12-07T06:39:25;14.33;;;8.43;;
27013;SDS011;14556;52.222;4.510;2023-12-07T06:41:54;12.57;;;6.93;;
27013;SDS011;14556;52.222;4.510;2023-12-07T06:44:21;14.37;;;7.77;;
27013;SDS011;14556;52.222;4.510;2023-12-07T06:46:48;12.90;;;7.20;;
27013;SDS011;14556;52.222;4.510;2023-12-07T06:49:16;12.93;;;6.60;;
27013;SDS011;14556;52.222;4.510;2023-12-07T06:51:42;13.23;;;7.30;;
27013;SDS011;14556;52.222;4.510;2023-12-07T06:54:09;15.67;;;8.67;;
27013;SDS011;14556;52.222;4.510;2023-12-07T06:56:35;14.93;;;7.20;;
27013;SDS011;14556;52.222;4.510;2023-12-07T06:59:02;12.10;;;6.87;;
27013;SDS011;14556;52.222;4.510;2023-12-07T07:01:29;14.77;;;8.47;;
27013;SDS011;14556;52.222;4.510;2023-12-07T07:03:59;15.23;;;7.97;;
27013;SDS011;14556;52.222;4.510;2023-12-07T07:06:26;14.33;;;7.70;;
27013;SDS011;14556;52.222;4.510;2023-12-07T07:08:52;10.10;;;6.23;;
27013;SDS011;14556;52.222;4.510;2023-12-07T07:11:20;15.40;;;6.70;;
27013;SDS011;14556;52.222;4.510;2023-12-07T07:13:46;9.03;;;6.00;;
27013;SDS011;14556;52.222;4.510;2023-12-07T07:16:12;13.77;;;7.30;;
27013;SDS011;14556;52.222;4.510;2023-12-07T07:18:39;10.80;;;6.33;;
27013;SDS011;14556;52.222;4.510;2023-12-07T07:21:08;11.03;;;6.57;;
27013;SDS011;14556;52.222;4.510;2023-12-07T07:23:35;10.73;;;5.63;;
27013;SDS011;14556;52.222;4.510;2023-12-07T07:26:01;11.60;;;6.30;;
27013;SDS011;14556;52.222;4.510;2023-12-07T07:28:28;11.83;;;5.97;;
27013;SDS011;14556;52.222;4.510;2023-12-07T07:30:55;13.37;;;6.60;;
27013;SDS011;14556;52.222;4.510;2023-12-07T07:33:21;11.20;;;6.33;;
27013;SDS011;14556;52.222;4.510;2023-12-07T07:35:48;13.27;;;6.07;;
27013;SDS011;14556;52.222;4.510;2023-12-07T07:38:17;11.30;;;6.43;;
27013;SDS011;14556;52.222;4.510;2023-12-07T07:40:43;16.00;;;7.07;;
27013;SDS011;14556;52.222;4.510;2023-12-07T07:43:11;13.90;;;7.10;;
27013;SDS011;14556;52.222;4.510;2023-12-07T07:45:38;9.27;;;5.93;;
27013;SDS011;14556;52.222;4.510;2023-12-07T07:48:04;13.17;;;6.70;;
27013;SDS011;14556;52.222;4.510;2023-12-07T07:50:31;13.40;;;6.73;;
27013;SDS011;14556;52.222;4.510;2023-12-07T07:52:58;11.43;;;6.20;;
27013;SDS011;14556;52.222;4.510;2023-12-07T07:55:24;8.73;;;5.20;;
27013;SDS011;14556;52.222;4.510;2023-12-07T07:57:51;10.43;;;4.93;;
27013;SDS011;14556;52.222;4.510;2023-12-07T08:00:17;10.83;;;4.77;;
27013;SDS011;14556;52.222;4.510;2023-12-07T08:02:45;11.00;;;4.90;;
27013;SDS011;14556;52.222;4.510;2023-12-07T08:05:12;9.77;;;4.20;;
27013;SDS011;14556;52.222;4.510;2023-12-07T08:07:39;8.20;;;4.33;;
27013;SDS011;14556;52.222;4.510;2023-12-07T08:10:06;8.20;;;4.73;;
27013;SDS011;14556;52.222;4.510;2023-12-07T08:12:33;11.13;;;5.17;;
27013;SDS011;14556;52.222;4.510;2023-12-07T08:14:59;12.80;;;4.83;;
27013;SDS011;14556;52.222;4.510;2023-12-07T08:17:26;12.63;;;5.47;;
27013;SDS011;14556;52.222;4.510;2023-12-07T08:19:53;9.53;;;4.70;;
27013;SDS011;14556;52.222;4.510;2023-12-07T08:22:19;11.70;;;5.33;;
27013;SDS011;14556;52.222;4.510;2023-12-07T08:24:49;10.07;;;4.83;;
27013;SDS011;14556;52.222;4.510;2023-12-07T08:27:30;10.20;;;5.33;;
27013;SDS011;14556;52.222;4.510;2023-12-07T08:29:56;10.07;;;5.57;;
27013;SDS011;14556;52.222;4.510;2023-12-07T08:32:23;9.57;;;5.03;;
27013;SDS011;14556;52.222;4.510;2023-12-07T08:34:52;11.93;;;5.03;;
27013;SDS011;14556;52.222;4.510;2023-12-07T08:37:18;9.00;;;4.87;;
27013;SDS011;14556;52.222;4.510;2023-12-07T08:39:45;16.23;;;8.53;;
27013;SDS011;14556;52.222;4.510;2023-12-07T08:42:11;6.97;;;4.07;;
27013;SDS011;14556;52.222;4.510;2023-12-07T08:44:42;14.33;;;6.20;;
27013;SDS011;14556;52.222;4.510;2023-12-07T08:47:09;9.47;;;5.40;;
27013;SDS011;14556;52.222;4.510;2023-12-07T08:49:38;12.90;;;5.47;;
27013;SDS011;14556;52.222;4.510;2023-12-07T08:52:04;14.50;;;5.57;;
27013;SDS011;14556;52.222;4.510;2023-12-07T08:54:50;11.50;;;4.97;;
27013;SDS011;14556;52.222;4.510;2023-12-07T08:57:20;13.70;;;5.77;;
27013;SDS011;14556;52.222;4.510;2023-12-07T08:59:46;11.60;;;4.83;;
27013;SDS011;14556;52.222;4.510;2023-12-07T09:02:13;10.40;;;5.47;;
27013;SDS011;14556;52.222;4.510;2023-12-07T09:04:48;10.70;;;4.73;;
27013;SDS011;14556;52.222;4.510;2023-12-07T09:07:18;10.47;;;5.37;;
27013;SDS011;14556;52.222;4.510;2023-12-07T09:09:44;11.50;;;5.47;;
27013;SDS011;14556;52.222;4.510;2023-12-07T09:12:14;10.70;;;4.20;;
27013;SDS011;14556;52.222;4.510;2023-12-07T09:14:47;10.80;;;4.73;;
27013;SDS011;14556;52.222;4.510;2023-12-07T09:17:13;14.33;;;6.57;;
27013;SDS011;14556;52.222;4.510;2023-12-07T09:19:41;11.20;;;4.83;;
27013;SDS011;14556;52.222;4.510;2023-12-07T09:22:08;8.23;;;4.00;;
27013;SDS011;14556;52.222;4.510;2023-12-07T09:24:36;6.73;;;3.83;;
27013;SDS011;14556;52.222;4.510;2023-12-07T09:27:02;12.20;;;4.60;;
27013;SDS011;14556;52.222;4.510;2023-12-07T09:29:29;11.70;;;4.83;;
27013;SDS011;14556;52.222;4.510;2023-12-07T09:31:55;11.83;;;4.67;;
27013;SDS011;14556;52.222;4.510;2023-12-07T09:34:22;9.93;;;4.17;;
27013;SDS011;14556;52.222;4.510;2023-12-07T09:36:49;10.50;;;4.90;;
27013;SDS011;14556;52.222;4.510;2023-12-07T09:39:15;9.37;;;4.40;;
27013;SDS011;14556;52.222;4.510;2023-12-07T09:41:42;13.03;;;5.50;;
27013;SDS011;14556;52.222;4.510;2023-12-07T09:44:09;12.77;;;5.80;;
27013;SDS011;14556;52.222;4.510;2023-12-07T09:46:36;11.60;;;5.07;;
27013;SDS011;14556;52.222;4.510;2023-12-07T09:49:03;13.27;;;5.40;;
27013;SDS011;14556;52.222;4.510;2023-12-07T09:51:30;13.03;;;5.00;;
27013;SDS011;14556;52.222;4.510;2023-12-07T09:53:59;16.37;;;5.73;;
27013;SDS011;14556;52.222;4.510;2023-12-07T09:56:26;15.33;;;5.93;;
27013;SDS011;14556;52.222;4.510;2023-12-07T09:58:52;11.57;;;4.50;;
27013;SDS011;14556;52.222;4.510;2023-12-07T10:01:19;15.40;;;6.10;;
27013;SDS011;14556;52.222;4.510;2023-12-07T10:03:45;10.33;;;4.80;;
27013;SDS011;14556;52.222;4.510;2023-12-07T10:06:14;11.93;;;5.30;;
27013;SDS011;14556;52.222;4.510;2023-12-07T10:08:41;17.47;;;6.43;;
27013;SDS011;14556;52.222;4.510;2023-12-07T10:11:08;20.10;;;6.50;;
27013;SDS011;14556;52.222;4.510;2023-12-07T10:13:36;14.80;;;5.70;;
27013;SDS011;14556;52.222;4.510;2023-12-07T10:16:09;13.37;;;5.50;;
27013;SDS011;14556;52.222;4.510;2023-12-07T10:18:36;15.63;;;6.70;;
27013;SDS011;14556;52.222;4.510;2023-12-07T10:21:07;16.43;;;5.73;;
27013;SDS011;14556;52.222;4.510;2023-12-07T10:23:34;12.57;;;6.10;;
27013;SDS011;14556;52.222;4.510;2023-12-07T10:26:00;16.60;;;6.87;;
27013;SDS011;14556;52.222;4.510;2023-12-07T10:28:27;11.60;;;5.90;;
27013;SDS011;14556;52.222;4.510;2023-12-07T10:30:54;20.20;;;8.03;;
27013;SDS011;14556;52.222;4.510;2023-12-07T10:33:20;22.13;;;7.83;;
27013;SDS011;14556;52.222;4.510;2023-12-07T10:35:47;16.43;;;7.27;;
27013;SDS011;14556;52.222;4.510;2023-12-07T10:38:15;15.23;;;7.00;;
27013;SDS011;14556;52.222;4.510;2023-12-07T10:40:42;17.33;;;6.90;;
27013;SDS011;14556;52.222;4.510;2023-12-07T10:43:08;20.00;;;7.27;;
27013;SDS011;14556;52.222;4.510;2023-12-07T10:45:35;20.97;;;7.33;;
27013;SDS011;14556;52.222;4.510;2023-12-07T10:48:08;13.00;;;5.63;;
27013;SDS011;14556;52.222;4.510;2023-12-07T10:50:35;16.43;;;6.90;;
27013;SDS011;14556;52.222;4.510;2023-12-07T10:53:05;20.30;;;7.70;;
27013;SDS011;14556;52.222;4.510;2023-12-07T10:55:34;21.27;;;8.60;;
27013;SDS011;14556;52.222;4.510;2023-12-07T10:58:03;22.57;;;8.27;;
27013;SDS011;14556;52.222;4.510;2023-12-07T11:00:29;17.10;;;6.57;;
27013;SDS011;14556;52.222;4.510;2023-12-07T11:03:09;20.53;;;7.40;;
27013;SDS011;14556;52.222;4.510;2023-12-07T11:05:36;12.70;;;6.30;;
27013;SDS011;14556;52.222;4.510;2023-12-07T11:08:07;20.90;;;7.67;;
27013;SDS011;14556;52.222;4.510;2023-12-07T11:13:08;20.53;;;7.40;;
27013;SDS011;14556;52.222;4.510;2023-12-07T11:15:37;18.83;;;6.63;;
27013;SDS011;14556;52.222;4.510;2023-12-07T11:18:04;15.80;;;6.73;;
27013;SDS011;14556;52.222;4.510;2023-12-07T11:20:41;21.10;;;8.53;;
27013;SDS011;14556;52.222;4.510;2023-12-07T11:23:08;21.10;;;8.37;;
27013;SDS011;14556;52.222;4.510;2023-12-07T11:25:38;22.03;;;10.00;;
27013;SDS011;14556;52.222;4.510;2023-12-07T11:28:06;20.53;;;8.43;;
27013;SDS011;14556;52.222;4.510;2023-12-07T11:30:35;20.60;;;7.87;;
27013;SDS011;14556;52.222;4.510;2023-12-07T11:33:05;21.27;;;9.07;;
27013;SDS011;14556;52.222;4.510;2023-12-07T11:35:33;28.97;;;9.60;;
27013;SDS011;14556;52.222;4.510;2023-12-07T11:38:02;14.57;;;6.53;;
27013;SDS011;14556;52.222;4.510;2023-12-07T11:40:40;16.00;;;8.07;;
27013;SDS011;14556;52.222;4.510;2023-12-07T11:43:08;21.13;;;9.00;;
27013;SDS011;14556;52.222;4.510;2023-12-07T11:45:49;19.47;;;9.30;;
27013;SDS011;14556;52.222;4.510;2023-12-07T11:48:16;18.83;;;8.03;;
27013;SDS011;14556;52.222;4.510;2023-12-07T11:53:31;16.73;;;8.00;;
27013;SDS011;14556;52.222;4.510;2023-12-07T11:55:58;21.03;;;8.47;;
27013;SDS011;14556;52.222;4.510;2023-12-07T11:58:25;21.33;;;9.23;;
27013;SDS011;14556;52.222;4.510;2023-12-07T12:00:52;18.03;;;7.17;;
27013;SDS011;14556;52.222;4.510;2023-12-07T12:03:20;25.13;;;8.93;;
27013;SDS011;14556;52.222;4.510;2023-12-07T12:05:46;23.90;;;9.77;;
27013;SDS011;14556;52.222;4.510;2023-12-07T12:08:13;25.73;;;10.17;;
27013;SDS011;14556;52.222;4.510;2023-12-07T12:10:40;24.60;;;8.60;;
27013;SDS011;14556;52.222;4.510;2023-12-07T12:13:08;32.20;;;11.57;;
27013;SDS011;14556;52.222;4.510;2023-12-07T12:15:37;26.57;;;8.93;;
27013;SDS011;14556;52.222;4.510;2023-12-07T12:18:04;25.73;;;10.93;;
27013;SDS011;14556;52.222;4.510;2023-12-07T12:20:31;23.80;;;9.20;;
27013;SDS011;14556;52.222;4.510;2023-12-07T12:22:58;23.33;;;10.47;;
27013;SDS011;14556;52.222;4.510;2023-12-07T12:25:27;30.87;;;9.43;;
27013;SDS011;14556;52.222;4.510;2023-12-07T12:27:58;24.97;;;9.73;;
27013;SDS011;14556;52.222;4.510;2023-12-07T12:30:29;23.30;;;9.67;;
27013;SDS011;14556;52.222;4.510;2023-12-07T12:32:56;26.03;;;11.40;;
27013;SDS011;14556;52.222;4.510;2023-12-07T12:35:23;21.30;;;9.03;;
27013;SDS011;14556;52.222;4.510;2023-12-07T12:37:51;23.47;;;8.07;;
27013;SDS011;14556;52.222;4.510;2023-12-07T12:40:19;23.43;;;9.63;;
27013;SDS011;14556;52.222;4.510;2023-12-07T12:42:47;23.30;;;9.43;;
27013;SDS011;14556;52.222;4.510;2023-12-07T12:45:14;24.87;;;8.67;;
27013;SDS011;14556;52.222;4.510;2023-12-07T12:47:41;23.27;;;9.90;;
27013;SDS011;14556;52.222;4.510;2023-12-07T12:50:08;24.43;;;9.87;;
27013;SDS011;14556;52.222;4.510;2023-12-07T12:52:35;21.63;;;10.33;;
27013;SDS011;14556;52.222;4.510;2023-12-07T12:55:02;22.93;;;9.83;;
27013;SDS011;14556;52.222;4.510;2023-12-07T12:57:30;25.83;;;10.27;;
27013;SDS011;14556;52.222;4.510;2023-12-07T13:00:00;27.80;;;9.47;;
27013;SDS011;14556;52.222;4.510;2023-12-07T13:02:28;25.43;;;9.27;;
27013;SDS011;14556;52.222;4.510;2023-12-07T13:04:55;23.70;;;10.27;;
27013;SDS011;14556;52.222;4.510;2023-12-07T13:07:22;28.10;;;10.47;;
27013;SDS011;14556;52.222;4.510;2023-12-07T13:09:51;26.87;;;9.30;;
27013;SDS011;14556;52.222;4.510;2023-12-07T13:12:17;23.77;;;9.80;;
27013;SDS011;14556;52.222;4.510;2023-12-07T13:14:44;17.77;;;8.80;;
27013;SDS011;14556;52.222;4.510;2023-12-07T13:17:15;20.27;;;8.87;;
27013;SDS011;14556;52.222;4.510;2023-12-07T13:19:42;17.27;;;7.70;;
27013;SDS011;14556;52.222;4.510;2023-12-07T13:22:09;24.00;;;10.73;;
27013;SDS011;14556;52.222;4.510;2023-12-07T13:24:36;23.60;;;10.47;;
27013;SDS011;14556;52.222;4.510;2023-12-07T13:27:02;20.37;;;9.13;;
27013;SDS011;14556;52.222;4.510;2023-12-07T13:29:30;22.77;;;9.67;;
27013;SDS011;14556;52.222;4.510;2023-12-07T13:32:02;22.53;;;10.67;;
27013;SDS011;14556;52.222;4.510;2023-12-07T13:34:29;27.80;;;10.07;;
27013;SDS011;14556;52.222;4.510;2023-12-07T13:36:57;23.97;;;9.47;;
27013;SDS011;14556;52.222;4.510;2023-12-07T13:39:23;19.93;;;9.30;;
27013;SDS011;14556;52.222;4.510;2023-12-07T13:41:57;22.13;;;9.23;;
27013;SDS011;14556;52.222;4.510;2023-12-07T13:44:24;30.27;;;12.63;;
27013;SDS011;14556;52.222;4.510;2023-12-07T13:46:54;19.20;;;9.33;;
27013;SDS011;14556;52.222;4.510;2023-12-07T13:49:21;20.13;;;7.90;;
27013;SDS011;14556;52.222;4.510;2023-12-07T13:51:59;19.40;;;8.50;;
27013;SDS011;14556;52.222;4.510;2023-12-07T13:54:32;20.57;;;8.53;;
27013;SDS011;14556;52.222;4.510;2023-12-07T13:57:19;22.47;;;8.90;;
27013;SDS011;14556;52.222;4.510;2023-12-07T13:59:47;25.60;;;9.63;;
27013;SDS011;14556;52.222;4.510;2023-12-07T14:02:14;23.40;;;10.90;;
27013;SDS011;14556;52.222;4.510;2023-12-07T14:04:41;28.93;;;10.10;;
27013;SDS011;14556;52.222;4.510;2023-12-07T14:07:08;20.70;;;9.70;;
27013;SDS011;14556;52.222;4.510;2023-12-07T14:09:37;22.70;;;10.37;;
27013;SDS011;14556;52.222;4.510;2023-12-07T14:12:18;23.77;;;10.10;;
27013;SDS011;14556;52.222;4.510;2023-12-07T14:14:45;21.77;;;10.50;;
27013;SDS011;14556;52.222;4.510;2023-12-07T14:17:12;23.10;;;10.60;;
27013;SDS011;14556;52.222;4.510;2023-12-07T14:19:40;31.10;;;10.77;;
27013;SDS011;14556;52.222;4.510;2023-12-07T14:22:07;27.20;;;10.87;;
27013;SDS011;14556;52.222;4.510;2023-12-07T14:24:35;23.83;;;8.70;;
27013;SDS011;14556;52.222;4.510;2023-12-07T14:27:03;28.53;;;10.80;;
27013;SDS011;14556;52.222;4.510;2023-12-07T14:29:33;26.40;;;10.27;;
27013;SDS011;14556;52.222;4.510;2023-12-07T14:31:59;23.50;;;9.73;;
27013;SDS011;14556;52.222;4.510;2023-12-07T14:34:29;27.37;;;10.70;;
27013;SDS011;14556;52.222;4.510;2023-12-07T14:37:01;31.20;;;12.00;;
27013;SDS011;14556;52.222;4.510;2023-12-07T14:39:35;23.80;;;9.27;;
27013;SDS011;14556;52.222;4.510;2023-12-07T14:42:02;29.97;;;10.97;;
27013;SDS011;14556;52.222;4.510;2023-12-07T14:44:32;27.93;;;10.10;;
27013;SDS011;14556;52.222;4.510;2023-12-07T14:46:58;28.53;;;10.67;;
27013;SDS011;14556;52.222;4.510;2023-12-07T14:49:25;24.57;;;10.03;;
27013;SDS011;14556;52.222;4.510;2023-12-07T14:51:53;28.97;;;11.40;;